Pont Aven — FNPN — position and weather

sailwx.info

Track history (hours):
 
Tides and Currents Weather Stations Pressure Air Temp Water Temp Dewpoint Dewpoint Depression Visibility Wind Speed Wind Dir Waves Ship Positions

Pont Aven

Last reported at 2020-Sep-25 08:04 UTC. Time now 2020-Sep-25 16:36 UTC.
Position N 50°12' W 004°24'.

Length 185 m; beam 31 m.

Type: Passenger vessel. MMSI: 228183600.

Date/timePositionNaut miles runAvg speedWind from/ knotsBaromVisibWave heightAir tempDewpointWater temp
2020-Sep-25 08:04N 50°12' W 004°24'1117.1
2020-Sep-25 07:25N 50°20' W 004°10'2 5.5
2020-Sep-25 07:01N 50°22' W 004°09'0 0.0
2020-Sep-25 06:01N 50°22' W 004°09'0 0.0
2020-Sep-25 04:01N 50°22' W 004°09'0 0.0
2020-Sep-25 00:31N 50°22' W 004°09'96 5.0
2020-Sep-24 05:25N 48°46' W 003°57'9411.3
2020-Sep-23 21:07N 50°20' W 004°10'2 2.0
2020-Sep-23 20:00N 50°22' W 004°09'0 0.0
2020-Sep-23 19:25N 50°22' W 004°09'0 0.0
2020-Sep-23 19:24N 50°22' W 004°09'0 0.0
2020-Sep-23 19:00N 50°22' W 004°09'0 0.0
2020-Sep-22 16:30N 50°22' W 004°09'0 0.0
2020-Sep-22 16:00N 50°22' W 004°09'0 0.0
2020-Sep-22 15:30N 50°22' W 004°09'22 6.3
2020-Sep-22 12:01N 50°00' W 004°17'7618.0
2020-Sep-22 07:46N 48°46' W 004°46'518.5
2020-Sep-22 07:30N 48°41' W 004°47'919.0
2020-Sep-22 07:00N 48°32' W 004°51'3115.7
2020-Sep-22 05:00N 48°01' W 004°45'1918.5
2020-Sep-22 04:00N 47°43' W 004°40'918.9
2020-Sep-22 03:30N 47°33' W 004°38'24418.1
2020-Sep-21 14:00N 43°32' W 003°45'1 0.3
2020-Sep-21 10:08N 43°31' W 003°45'26123.6
2020-Sep-20 23:05N 47°47' W 005°04'8122.5
2020-Sep-20 19:29N 49°06' W 004°38'7622.8
2020-Sep-20 16:09N 50°20' W 004°10'1 9.8
2020-Sep-20 16:00N 50°21' W 004°09'1 0.7
2020-Sep-20 14:30N 50°22' W 004°09'2 1.0
2020-Sep-20 12:26N 50°20' W 004°10'818.8
2020-Sep-20 12:00N 50°12' W 004°10'164 8.4
2020-Sep-19 16:30N 51°32' W 007°56'23 9.2
2020-Sep-19 14:00N 51°50' W 008°19'0 0.0
2020-Sep-19 11:01N 51°50' W 008°19'0 0.0
2020-Sep-19 10:01N 51°50' W 008°19'3 1.3
2020-Sep-19 07:31N 51°48' W 008°16'816.0
2020-Sep-19 07:00N 51°41' W 008°09'171 7.3
2020-Sep-18 07:29N 50°20' W 004°10'2 3.6
2020-Sep-18 07:00N 50°22' W 004°09'2 1.0
2020-Sep-18 05:00N 50°20' W 004°10'9 3.9
2020-Sep-18 02:48N 50°11' W 004°08'1510.3
2020-Sep-18 01:24N 49°57' W 004°05'511.2
2020-Sep-18 00:59N 49°52' W 004°03'5610.3
2020-Sep-17 19:31N 48°56' W 003°59'13 0.8
2020-Sep-17 03:19N 49°09' W 004°00'311.0
2020-Sep-17 03:00N 49°13' W 004°01'1711.1
2020-Sep-17 01:30N 49°29' W 004°03'611.5
2020-Sep-17 01:00N 49°35' W 004°03'611.5
2020-Sep-17 00:30N 49°41' W 004°05'611.4
2020-Sep-17 00:00N 49°47' W 004°06'3510.1
2020-Sep-16 20:30N 50°22' W 004°09'7 3.3
2020-Sep-16 18:20N 50°15' W 004°10'515.2
2020-Sep-16 18:00N 50°10' W 004°10'1915.2
2020-Sep-16 16:45N 49°51' W 004°06'415.4
2020-Sep-16 16:30N 49°47' W 004°06'6414.0
2020-Sep-16 11:56N 48°43' W 003°58'0 0.0
2020-Sep-16 07:00N 48°43' W 003°58'9 4.6
2020-Sep-16 05:00N 48°52' W 003°57'510.5
2020-Sep-16 04:30N 48°58' W 003°57'510.3
2020-Sep-16 04:00N 49°03' W 003°57'1010.4
2020-Sep-16 03:00N 49°13' W 003°58'3411.2
2020-Sep-16 00:00N 49°47' W 004°05'611.5
2020-Sep-15 23:30N 49°52' W 004°06'1111.4
2020-Sep-15 22:30N 50°04' W 004°08'18 9.1
2020-Sep-15 20:30N 50°22' W 004°09'0 0.0
2020-Sep-15 14:00N 50°22' W 004°09'0 0.2
2020-Sep-15 13:31N 50°22' W 004°09'  
Track history (hours):
 
Tides and Currents Weather Stations Pressure Air Temp Water Temp Dewpoint Dewpoint Depression Visibility Wind Speed Wind Dir Waves Ship Positions

Pont Aven

Last reported at 2020-Sep-25 08:04 UTC. Time now 2020-Sep-25 16:36 UTC.
Position N 50°12' W 004°24'.

Length 185 m; beam 31 m.

Type: Passenger vessel. MMSI: 228183600.

Date/timePositionNaut miles runAvg speedWind from/ knotsBaromVisibWave heightAir tempDewpointWater temp
2020-Sep-25 08:04N 50°12' W 004°24'1117.1
2020-Sep-25 07:25N 50°20' W 004°10'2 5.5
2020-Sep-25 07:01N 50°22' W 004°09'0 0.0
2020-Sep-25 06:01N 50°22' W 004°09'0 0.0
2020-Sep-25 04:01N 50°22' W 004°09'0 0.0
2020-Sep-25 00:31N 50°22' W 004°09'96 5.0
2020-Sep-24 05:25N 48°46' W 003°57'9411.3
2020-Sep-23 21:07N 50°20' W 004°10'2 2.0
2020-Sep-23 20:00N 50°22' W 004°09'0 0.0
2020-Sep-23 19:25N 50°22' W 004°09'0 0.0
2020-Sep-23 19:24N 50°22' W 004°09'0 0.0
2020-Sep-23 19:00N 50°22' W 004°09'0 0.0
2020-Sep-22 16:30N 50°22' W 004°09'0 0.0
2020-Sep-22 16:00N 50°22' W 004°09'0 0.0
2020-Sep-22 15:30N 50°22' W 004°09'22 6.3
2020-Sep-22 12:01N 50°00' W 004°17'7618.0
2020-Sep-22 07:46N 48°46' W 004°46'518.5
2020-Sep-22 07:30N 48°41' W 004°47'919.0
2020-Sep-22 07:00N 48°32' W 004°51'3115.7
2020-Sep-22 05:00N 48°01' W 004°45'1918.5
2020-Sep-22 04:00N 47°43' W 004°40'918.9
2020-Sep-22 03:30N 47°33' W 004°38'24418.1
2020-Sep-21 14:00N 43°32' W 003°45'1 0.3
2020-Sep-21 10:08N 43°31' W 003°45'26123.6
2020-Sep-20 23:05N 47°47' W 005°04'8122.5
2020-Sep-20 19:29N 49°06' W 004°38'7622.8
2020-Sep-20 16:09N 50°20' W 004°10'1 9.8
2020-Sep-20 16:00N 50°21' W 004°09'1 0.7
2020-Sep-20 14:30N 50°22' W 004°09'2 1.0
2020-Sep-20 12:26N 50°20' W 004°10'818.8
2020-Sep-20 12:00N 50°12' W 004°10'164 8.4
2020-Sep-19 16:30N 51°32' W 007°56'23 9.2
2020-Sep-19 14:00N 51°50' W 008°19'0 0.0
2020-Sep-19 11:01N 51°50' W 008°19'0 0.0
2020-Sep-19 10:01N 51°50' W 008°19'3 1.3
2020-Sep-19 07:31N 51°48' W 008°16'816.0
2020-Sep-19 07:00N 51°41' W 008°09'171 7.3
2020-Sep-18 07:29N 50°20' W 004°10'2 3.6
2020-Sep-18 07:00N 50°22' W 004°09'2 1.0
2020-Sep-18 05:00N 50°20' W 004°10'9 3.9
2020-Sep-18 02:48N 50°11' W 004°08'1510.3
2020-Sep-18 01:24N 49°57' W 004°05'511.2
2020-Sep-18 00:59N 49°52' W 004°03'5610.3
2020-Sep-17 19:31N 48°56' W 003°59'13 0.8
2020-Sep-17 03:19N 49°09' W 004°00'311.0
2020-Sep-17 03:00N 49°13' W 004°01'1711.1
2020-Sep-17 01:30N 49°29' W 004°03'611.5
2020-Sep-17 01:00N 49°35' W 004°03'611.5
2020-Sep-17 00:30N 49°41' W 004°05'611.4
2020-Sep-17 00:00N 49°47' W 004°06'3510.1
2020-Sep-16 20:30N 50°22' W 004°09'7 3.3
2020-Sep-16 18:20N 50°15' W 004°10'515.2
2020-Sep-16 18:00N 50°10' W 004°10'1915.2
2020-Sep-16 16:45N 49°51' W 004°06'415.4
2020-Sep-16 16:30N 49°47' W 004°06'6414.0
2020-Sep-16 11:56N 48°43' W 003°58'0 0.0
2020-Sep-16 07:00N 48°43' W 003°58'9 4.6
2020-Sep-16 05:00N 48°52' W 003°57'510.5
2020-Sep-16 04:30N 48°58' W 003°57'510.3
2020-Sep-16 04:00N 49°03' W 003°57'1010.4
2020-Sep-16 03:00N 49°13' W 003°58'3411.2
2020-Sep-16 00:00N 49°47' W 004°05'611.5
2020-Sep-15 23:30N 49°52' W 004°06'1111.4
2020-Sep-15 22:30N 50°04' W 004°08'18 9.1
2020-Sep-15 20:30N 50°22' W 004°09'0 0.0
2020-Sep-15 14:00N 50°22' W 004°09'0 0.2
2020-Sep-15 13:31N 50°22' W 004°09'  

Dump ship's entire track history